createdAt,value
2017-08-19T00:00:39.213Z,3.50
2017-08-19T00:03:06.749Z,2.83
2017-08-19T00:05:34.237Z,2.90
2017-08-19T00:08:01.741Z,2.80
2017-08-19T00:10:29.229Z,3.23
2017-08-19T00:12:56.732Z,3.77
2017-08-19T00:15:24.291Z,3.60
2017-08-19T00:17:51.793Z,2.70
2017-08-19T00:20:19.277Z,3.30
2017-08-19T00:22:46.792Z,3.60
2017-08-19T00:25:14.277Z,3.23
2017-08-19T00:27:41.770Z,3.80
2017-08-19T00:30:09.325Z,3.40
2017-08-19T00:32:36.813Z,3.33
2017-08-19T00:35:04.414Z,3.10
2017-08-19T00:37:31.982Z,2.90
2017-08-19T00:39:59.502Z,3.27
2017-08-19T00:42:26.986Z,2.97
2017-08-19T00:44:54.557Z,3.43
2017-08-19T00:47:22.860Z,2.70
2017-08-19T00:49:50.365Z,3.10
2017-08-19T00:52:17.861Z,2.57
2017-08-19T00:54:45.381Z,3.50
2017-08-19T00:57:12.868Z,3.13
2017-08-19T00:59:40.469Z,2.83
2017-08-19T01:02:07.956Z,2.70
2017-08-19T01:04:35.436Z,2.80
2017-08-19T01:07:03.781Z,2.70
2017-08-19T01:09:32.077Z,2.67
2017-08-19T01:11:59.658Z,3.03
2017-08-19T01:14:27.164Z,2.50
2017-08-19T01:16:54.669Z,2.50
2017-08-19T01:19:22.156Z,3.90
2017-08-19T01:21:49.665Z,2.90
2017-08-19T01:24:17.917Z,2.90
2017-08-19T01:26:57.352Z,2.73
2017-08-19T01:29:25.605Z,2.57
2017-08-19T01:31:53.189Z,3.00
2017-08-19T01:34:20.673Z,2.73
2017-08-19T01:36:48.190Z,3.17
2017-08-19T01:39:15.722Z,2.97
2017-08-19T01:41:43.235Z,4.10
2017-08-19T01:44:11.525Z,2.90
2017-08-19T01:46:39.093Z,3.53
2017-08-19T01:49:06.578Z,3.63
2017-08-19T01:51:34.157Z,4.20
2017-08-19T01:54:01.661Z,3.40
2017-08-19T01:56:29.226Z,3.57
2017-08-19T01:58:57.497Z,3.20
2017-08-19T02:01:24.985Z,3.17
2017-08-19T02:03:52.589Z,2.97
2017-08-19T02:06:20.141Z,2.83
2017-08-19T02:08:47.684Z,3.13
2017-08-19T02:11:15.248Z,3.23
2017-08-19T02:13:42.769Z,3.50
2017-08-19T02:16:10.262Z,3.50
2017-08-19T02:18:37.749Z,3.03
2017-08-19T02:21:05.254Z,4.00
2017-08-19T02:23:32.858Z,3.00
2017-08-19T02:26:00.453Z,3.93
2017-08-19T02:28:27.997Z,3.17
2017-08-19T02:30:55.645Z,2.80
2017-08-19T02:33:23.124Z,3.10
2017-08-19T02:35:50.732Z,3.47
2017-08-19T02:38:18.277Z,4.57
2017-08-19T02:40:45.785Z,3.47
2017-08-19T02:43:13.286Z,3.53
2017-08-19T02:45:40.807Z,3.93
2017-08-19T02:48:08.353Z,3.87
2017-08-19T02:50:35.900Z,3.03
2017-08-19T02:53:03.393Z,3.50
2017-08-19T02:55:30.888Z,3.10
2017-08-19T02:57:58.421Z,2.80
2017-08-19T03:00:25.965Z,2.93
2017-08-19T03:02:53.472Z,3.17
2017-08-19T03:05:21.017Z,2.97
2017-08-19T03:07:48.588Z,3.30
2017-08-19T03:10:16.085Z,3.23
2017-08-19T03:12:43.585Z,2.93
2017-08-19T03:15:11.129Z,3.50
2017-08-19T03:17:38.681Z,3.20
2017-08-19T03:20:06.168Z,3.40
2017-08-19T03:22:33.687Z,4.10
2017-08-19T03:25:01.244Z,3.00
2017-08-19T03:27:28.789Z,3.10
2017-08-19T03:29:56.297Z,2.47
2017-08-19T03:32:23.781Z,3.00
2017-08-19T03:34:51.321Z,3.60
2017-08-19T03:37:18.888Z,3.53
2017-08-19T03:39:46.422Z,3.73
2017-08-19T03:42:13.904Z,3.57
2017-08-19T03:44:41.416Z,2.80
2017-08-19T03:47:08.936Z,3.17
2017-08-19T03:49:36.479Z,3.13
2017-08-19T03:52:04.024Z,3.37
2017-08-19T03:54:31.538Z,3.03
2017-08-19T03:56:59.824Z,3.20
2017-08-19T03:59:27.372Z,3.77
2017-08-19T04:01:54.913Z,4.40
2017-08-19T04:04:22.464Z,3.30
2017-08-19T04:06:50.000Z,3.00
2017-08-19T04:09:17.560Z,2.93
2017-08-19T04:11:45.100Z,3.03
2017-08-19T04:14:12.640Z,3.63
2017-08-19T04:16:40.181Z,3.33
2017-08-19T04:19:07.729Z,3.00
2017-08-19T04:21:35.229Z,2.80
2017-08-19T04:24:02.809Z,2.77
2017-08-19T04:26:30.361Z,5.83
2017-08-19T04:28:57.855Z,3.40
2017-08-19T04:31:25.441Z,3.00
2017-08-19T04:33:52.920Z,2.83
2017-08-19T04:36:20.417Z,2.97
2017-08-19T04:38:47.984Z,3.40
2017-08-19T04:41:15.524Z,3.53
2017-08-19T04:43:43.056Z,2.60
2017-08-19T04:46:10.545Z,2.80
2017-08-19T04:48:38.153Z,3.13
2017-08-19T04:51:05.688Z,2.10
2017-08-19T04:53:33.192Z,2.70
2017-08-19T04:56:00.780Z,2.67
2017-08-19T04:58:28.352Z,3.70
2017-08-19T05:00:55.868Z,3.27
2017-08-19T05:03:23.420Z,2.83
2017-08-19T05:05:50.965Z,2.40
2017-08-19T05:08:18.504Z,3.23
2017-08-19T05:10:46.045Z,2.90
2017-08-19T05:13:13.693Z,2.67
2017-08-19T05:15:41.196Z,2.80
2017-08-19T05:18:08.688Z,3.20
2017-08-19T05:20:36.189Z,3.03
2017-08-19T05:23:03.696Z,2.27
2017-08-19T05:25:31.236Z,3.00
2017-08-19T05:27:58.780Z,2.70
2017-08-19T05:30:26.356Z,3.03
2017-08-19T05:32:53.857Z,3.10
2017-08-19T05:35:22.132Z,2.20
2017-08-19T05:37:49.684Z,3.07
2017-08-19T05:40:17.225Z,2.77
2017-08-19T05:42:44.721Z,2.43
2017-08-19T05:45:12.237Z,2.27
2017-08-19T05:47:39.761Z,2.70
2017-08-19T05:50:07.244Z,2.40
2017-08-19T05:52:34.741Z,2.23
2017-08-19T05:55:02.309Z,2.50
2017-08-19T05:57:29.828Z,2.40
2017-08-19T05:59:57.369Z,2.63
2017-08-19T06:02:24.865Z,2.93
2017-08-19T06:04:52.350Z,2.20
2017-08-19T06:07:19.901Z,2.47
2017-08-19T06:09:47.392Z,2.23
2017-08-19T06:12:14.987Z,2.57
2017-08-19T06:14:42.473Z,2.67
2017-08-19T06:17:09.993Z,2.80
2017-08-19T06:19:37.520Z,2.70
2017-08-19T06:22:05.012Z,2.70
2017-08-19T06:24:32.513Z,2.60
2017-08-19T06:27:00.060Z,2.53
2017-08-19T06:29:27.565Z,2.20
2017-08-19T06:31:55.148Z,2.50
2017-08-19T06:34:22.696Z,2.53
2017-08-19T06:36:50.240Z,2.30
2017-08-19T06:39:17.784Z,2.77
2017-08-19T06:41:45.268Z,3.30
2017-08-19T06:44:12.869Z,2.67
2017-08-19T06:46:40.350Z,3.10
2017-08-19T06:49:07.960Z,3.43
2017-08-19T06:51:35.445Z,3.20
2017-08-19T06:54:02.930Z,2.23
2017-08-19T06:56:30.489Z,3.30
2017-08-19T06:58:57.977Z,3.23
2017-08-19T07:01:25.581Z,3.30
2017-08-19T07:03:53.080Z,3.20
2017-08-19T07:06:20.590Z,3.27
2017-08-19T07:08:48.077Z,2.93
2017-08-19T07:11:16.372Z,2.47
2017-08-19T07:13:43.917Z,2.40
2017-08-19T07:16:11.457Z,2.60
2017-08-19T07:18:38.945Z,3.07
2017-08-19T07:21:06.536Z,2.73
2017-08-19T07:23:34.113Z,3.40
2017-08-19T07:26:01.637Z,3.10
2017-08-19T07:28:29.181Z,3.30
2017-08-19T07:30:56.724Z,3.50
2017-08-19T07:33:24.211Z,3.13
2017-08-19T07:35:51.693Z,2.80
2017-08-19T07:38:19.256Z,2.83
2017-08-19T07:40:46.792Z,3.10
2017-08-19T07:43:14.332Z,3.13
2017-08-19T07:45:41.820Z,2.87
2017-08-19T07:48:09.425Z,3.20
2017-08-19T07:50:36.913Z,3.30
2017-08-19T07:53:04.512Z,2.83
2017-08-19T07:55:32.082Z,2.80
2017-08-19T07:57:59.585Z,2.90
2017-08-19T08:00:27.864Z,3.23
2017-08-19T08:02:56.333Z,3.37
2017-08-19T08:05:24.002Z,2.97
2017-08-19T08:07:51.621Z,3.23
2017-08-19T08:10:19.104Z,3.47
2017-08-19T08:12:46.613Z,3.10
2017-08-19T08:15:14.152Z,3.20
2017-08-19T08:17:41.645Z,2.77
2017-08-19T08:20:09.237Z,3.90
2017-08-19T08:22:36.782Z,3.23
2017-08-19T08:25:04.328Z,2.50
2017-08-19T08:27:31.868Z,2.37
2017-08-19T08:29:59.417Z,3.00
2017-08-19T08:32:26.963Z,2.90
2017-08-19T08:34:54.489Z,3.23
2017-08-19T08:37:22.760Z,3.00
2017-08-19T08:39:50.240Z,2.57
2017-08-19T08:42:17.747Z,2.83
2017-08-19T08:44:45.294Z,3.30
2017-08-19T08:47:12.846Z,2.60
2017-08-19T08:49:40.388Z,2.70
2017-08-19T08:52:07.904Z,3.47
2017-08-19T08:54:36.158Z,2.70
2017-08-19T08:57:04.429Z,3.03
2017-08-19T08:59:32.692Z,3.17
2017-08-19T09:02:01.068Z,3.03
2017-08-19T09:04:28.555Z,2.90
2017-08-19T09:06:56.060Z,3.03
2017-08-19T09:09:23.604Z,2.40
2017-08-19T09:11:51.140Z,2.83
2017-08-19T09:14:18.714Z,2.53
2017-08-19T09:16:46.233Z,3.00
2017-08-19T09:19:13.780Z,2.80
2017-08-19T09:21:41.322Z,3.13
2017-08-19T09:24:08.805Z,3.00
2017-08-19T09:26:36.300Z,2.90
2017-08-19T09:29:04.052Z,2.97
2017-08-19T09:31:31.593Z,2.50
2017-08-19T09:33:59.152Z,2.80
2017-08-19T09:36:26.689Z,2.50
2017-08-19T09:38:54.332Z,2.37
2017-08-19T09:41:21.876Z,3.20
2017-08-19T09:43:49.377Z,3.47
2017-08-19T09:46:16.970Z,2.70
2017-08-19T09:48:44.504Z,2.50
2017-08-19T09:51:12.053Z,2.80
2017-08-19T09:53:40.417Z,3.27
2017-08-19T09:56:07.908Z,2.77
2017-08-19T09:58:35.408Z,2.70
2017-08-19T10:01:02.896Z,2.73
2017-08-19T10:03:30.502Z,2.80
2017-08-19T10:05:58.036Z,3.33
2017-08-19T10:08:37.577Z,3.60
2017-08-19T10:11:17.044Z,3.20
2017-08-19T10:13:44.568Z,2.90
2017-08-19T10:16:12.142Z,2.80
2017-08-19T10:18:39.643Z,2.57
2017-08-19T10:21:07.148Z,2.87
2017-08-19T10:23:34.633Z,3.43
2017-08-19T10:26:02.189Z,2.70
2017-08-19T10:28:29.738Z,3.10
2017-08-19T10:30:57.249Z,2.70
2017-08-19T10:33:25.508Z,3.00
2017-08-19T10:35:53.801Z,2.40
2017-08-19T10:38:21.357Z,2.33
2017-08-19T10:40:48.890Z,2.90
2017-08-19T10:43:16.455Z,2.57
2017-08-19T10:45:43.957Z,3.20
2017-08-19T10:48:12.332Z,2.47
2017-08-19T10:50:39.865Z,2.63
2017-08-19T10:53:07.417Z,2.60
2017-08-19T10:55:34.965Z,2.87
2017-08-19T10:58:02.509Z,2.47
2017-08-19T11:00:30.021Z,2.53
2017-08-19T11:02:57.561Z,2.40
2017-08-19T11:05:25.072Z,2.57
2017-08-19T11:07:52.624Z,2.03
2017-08-19T11:10:20.142Z,2.80
2017-08-19T11:12:47.653Z,2.30
2017-08-19T11:15:15.928Z,2.40
2017-08-19T11:17:43.473Z,2.40
2017-08-19T11:20:11.034Z,2.10
2017-08-19T11:22:38.542Z,2.10
2017-08-19T11:25:06.933Z,2.27
2017-08-19T11:27:34.435Z,2.20
2017-08-19T11:30:02.017Z,1.93
2017-08-19T11:32:29.518Z,1.90
2017-08-19T11:34:57.008Z,2.40
2017-08-19T11:37:24.544Z,2.27
2017-08-19T11:39:52.060Z,2.77
2017-08-19T11:42:20.355Z,2.43
2017-08-19T11:44:47.849Z,2.13
2017-08-19T11:47:15.368Z,2.43
2017-08-19T11:49:42.876Z,2.43
2017-08-19T11:52:10.365Z,2.00
2017-08-19T11:54:37.868Z,2.30
2017-08-19T11:57:05.349Z,1.97
2017-08-19T11:59:32.849Z,2.03
2017-08-19T12:02:00.339Z,2.50
2017-08-19T12:04:27.838Z,1.60
2017-08-19T12:06:55.420Z,2.20
2017-08-19T12:09:22.928Z,2.27
2017-08-19T12:11:50.573Z,1.70
2017-08-19T12:14:18.078Z,2.20
2017-08-19T12:16:45.569Z,1.80
2017-08-19T12:19:13.086Z,1.63
2017-08-19T12:21:41.340Z,2.23
2017-08-19T12:24:09.612Z,1.97
2017-08-19T12:26:37.120Z,2.23
2017-08-19T12:29:04.609Z,2.03
2017-08-19T12:31:32.179Z,1.67
2017-08-19T12:33:59.696Z,2.07
2017-08-19T12:36:27.237Z,2.03
2017-08-19T12:38:54.887Z,1.50
2017-08-19T12:41:22.397Z,1.73
2017-08-19T12:43:49.989Z,1.90
2017-08-19T12:46:17.513Z,1.87
2017-08-19T12:48:45.009Z,2.17
2017-08-19T12:51:12.611Z,1.83
2017-08-19T12:53:40.596Z,1.90
2017-08-19T12:56:08.236Z,2.00
2017-08-19T12:58:35.752Z,1.90
2017-08-19T13:01:03.397Z,2.03
2017-08-19T13:03:30.877Z,1.50
2017-08-19T13:05:58.401Z,1.50
2017-08-19T13:08:25.896Z,2.03
2017-08-19T13:10:54.193Z,1.87
2017-08-19T13:13:21.710Z,1.90
2017-08-19T13:15:49.993Z,1.70
2017-08-19T13:18:17.500Z,1.90
2017-08-19T13:20:45.006Z,1.40
2017-08-19T13:23:12.508Z,1.60
2017-08-19T13:25:40.167Z,1.83
2017-08-19T13:28:07.839Z,1.77
2017-08-19T13:30:35.378Z,1.47
2017-08-19T13:33:03.943Z,1.53
2017-08-19T13:35:42.662Z,1.60
2017-08-19T13:38:10.292Z,1.60
2017-08-19T13:40:46.959Z,2.10
2017-08-19T13:43:15.480Z,1.30
2017-08-19T13:45:43.150Z,1.87
2017-08-19T13:48:14.099Z,1.70
2017-08-19T13:50:41.612Z,1.50
2017-08-19T13:53:09.128Z,1.50
2017-08-19T13:55:36.758Z,1.83
2017-08-19T13:58:04.244Z,2.43
2017-08-19T14:00:31.757Z,1.70
2017-08-19T14:02:59.245Z,2.10
2017-08-19T14:05:26.740Z,2.23
2017-08-19T14:07:55.020Z,2.20
2017-08-19T14:10:22.561Z,2.10
2017-08-19T14:12:50.045Z,2.40
2017-08-19T14:15:17.580Z,2.30
2017-08-19T14:17:45.077Z,2.67
2017-08-19T14:20:13.362Z,2.40
2017-08-19T14:22:40.848Z,2.63
2017-08-19T14:25:08.371Z,2.90
2017-08-19T14:27:35.988Z,2.27
2017-08-19T14:30:03.562Z,2.50
2017-08-19T14:32:31.045Z,1.90
2017-08-19T14:34:58.733Z,2.03
2017-08-19T14:37:26.224Z,2.27
2017-08-19T14:39:53.806Z,1.87
2017-08-19T14:42:21.298Z,3.40
2017-08-19T14:44:48.898Z,2.07
2017-08-19T14:47:16.396Z,1.90
2017-08-19T14:49:43.990Z,2.23
2017-08-19T14:52:12.605Z,2.00
2017-08-19T14:54:40.092Z,2.90
2017-08-19T14:57:07.609Z,2.80
2017-08-19T14:59:35.095Z,2.20
2017-08-19T15:02:02.593Z,4.57
2017-08-19T15:04:30.080Z,2.50
2017-08-19T15:06:57.578Z,2.33
2017-08-19T15:09:25.881Z,2.80
2017-08-19T15:11:53.427Z,2.73
2017-08-19T15:14:20.965Z,2.53
2017-08-19T15:16:48.509Z,2.93
2017-08-19T15:19:15.996Z,2.23
2017-08-19T15:21:43.513Z,2.50
2017-08-19T15:24:11.021Z,2.50
2017-08-19T15:26:39.268Z,2.57
2017-08-19T15:29:06.772Z,2.40
2017-08-19T15:31:34.390Z,2.53
2017-08-19T15:34:01.953Z,2.80
2017-08-19T15:36:29.473Z,2.40
2017-08-19T15:38:57.021Z,2.57
2017-08-19T15:41:24.527Z,2.77
2017-08-19T15:43:52.850Z,2.30
2017-08-19T15:46:20.337Z,2.50
2017-08-19T15:48:48.612Z,2.20
2017-08-19T15:51:16.096Z,2.30
2017-08-19T15:53:43.626Z,2.10
2017-08-19T15:56:11.122Z,2.10
2017-08-19T15:58:38.706Z,2.03
2017-08-19T16:01:06.200Z,2.10
2017-08-19T16:03:33.700Z,2.10
2017-08-19T16:06:01.197Z,2.30
2017-08-19T16:08:28.721Z,2.60
2017-08-19T16:10:56.219Z,2.00
2017-08-19T16:13:23.706Z,2.10
2017-08-19T16:15:51.212Z,2.63
2017-08-19T16:18:18.740Z,2.23
2017-08-19T16:20:46.290Z,2.87
2017-08-19T16:23:13.843Z,2.40
2017-08-19T16:25:41.498Z,2.53
2017-08-19T16:28:09.054Z,2.40
2017-08-19T16:30:36.582Z,2.43
2017-08-19T16:33:04.114Z,2.80
2017-08-19T16:35:31.608Z,2.17
2017-08-19T16:37:59.206Z,2.40
2017-08-19T16:40:26.705Z,2.30
2017-08-19T16:42:54.289Z,2.60
2017-08-19T16:45:21.833Z,2.97
2017-08-19T16:47:49.317Z,2.30
2017-08-19T16:50:16.928Z,2.40
2017-08-19T16:52:44.447Z,2.50
2017-08-19T16:55:11.980Z,3.40
2017-08-19T16:57:40.272Z,2.60
2017-08-19T17:00:07.812Z,2.33
2017-08-19T17:02:35.318Z,2.70
2017-08-19T17:05:02.896Z,2.90
2017-08-19T17:07:30.401Z,2.80
2017-08-19T17:09:57.914Z,2.50
2017-08-19T17:12:25.408Z,2.10
2017-08-19T17:14:53.689Z,2.00
2017-08-19T17:17:21.241Z,2.33
2017-08-19T17:19:48.728Z,2.43
2017-08-19T17:22:16.232Z,2.30
2017-08-19T17:24:43.721Z,2.33
2017-08-19T17:27:11.233Z,2.60
2017-08-19T17:29:38.764Z,2.70
2017-08-19T17:32:06.365Z,2.60
2017-08-19T17:34:33.985Z,2.83
2017-08-19T17:37:01.592Z,2.67
2017-08-19T17:39:29.077Z,3.20
2017-08-19T17:41:56.580Z,3.20
2017-08-19T17:44:24.120Z,2.73
2017-08-19T17:46:51.653Z,2.50
2017-08-19T17:49:19.226Z,3.20
2017-08-19T17:51:46.749Z,3.27
2017-08-19T17:54:24.171Z,3.80
2017-08-19T17:56:51.764Z,3.50
2017-08-19T17:59:19.297Z,3.27
2017-08-19T18:01:46.888Z,2.70
2017-08-19T18:04:14.401Z,3.47
2017-08-19T18:06:41.892Z,3.07
2017-08-19T18:09:09.492Z,2.83
2017-08-19T18:11:36.983Z,3.67
2017-08-19T18:14:04.605Z,3.40
2017-08-19T18:16:32.121Z,3.20
2017-08-19T18:18:59.629Z,3.70
2017-08-19T18:21:27.208Z,3.73
2017-08-19T18:23:54.721Z,3.77
2017-08-19T18:26:22.205Z,3.40
2017-08-19T18:28:49.727Z,4.20
2017-08-19T18:31:17.280Z,3.77
2017-08-19T18:33:44.764Z,3.90
2017-08-19T18:36:12.376Z,4.10
2017-08-19T18:38:39.908Z,3.30
2017-08-19T18:41:07.456Z,3.10
2017-08-19T18:43:35.012Z,3.90
2017-08-19T18:46:02.509Z,3.63
2017-08-19T18:48:30.096Z,4.37
2017-08-19T18:50:57.741Z,4.50
2017-08-19T18:53:25.281Z,4.10
2017-08-19T18:55:52.796Z,4.50
2017-08-19T18:58:21.084Z,3.90
2017-08-19T19:00:48.632Z,4.63
2017-08-19T19:03:16.203Z,4.80
2017-08-19T19:05:43.684Z,4.40
2017-08-19T19:08:11.265Z,4.80
2017-08-19T19:10:38.766Z,4.87
2017-08-19T19:13:06.269Z,4.60
2017-08-19T19:15:33.820Z,5.10
2017-08-19T19:18:01.362Z,6.00
2017-08-19T19:20:28.891Z,5.43
2017-08-19T19:22:56.425Z,6.13
2017-08-19T19:25:23.908Z,5.37
2017-08-19T19:27:51.407Z,4.67
2017-08-19T19:30:18.892Z,4.70
2017-08-19T19:32:46.461Z,4.50
2017-08-19T19:35:13.945Z,4.50
2017-08-19T19:37:41.586Z,5.50
2017-08-19T19:40:09.135Z,5.70
2017-08-19T19:42:36.700Z,6.90
2017-08-19T19:45:04.228Z,6.50
2017-08-19T19:47:32.689Z,5.17
2017-08-19T19:50:00.256Z,5.93
2017-08-19T19:52:27.770Z,5.43
2017-08-19T19:54:55.308Z,5.27
2017-08-19T19:57:22.885Z,6.73
2017-08-19T19:59:50.428Z,5.00
2017-08-19T20:02:17.949Z,5.43
2017-08-19T20:04:45.490Z,4.90
2017-08-19T20:07:13.061Z,6.37
2017-08-19T20:09:40.556Z,5.10
2017-08-19T20:12:08.849Z,5.53
2017-08-19T20:14:36.390Z,5.43
2017-08-19T20:17:03.872Z,5.20
2017-08-19T20:19:31.470Z,5.17
2017-08-19T20:21:59.021Z,5.23
2017-08-19T20:24:26.556Z,5.40
2017-08-19T20:26:54.105Z,5.70
2017-08-19T20:29:21.592Z,5.23
2017-08-19T20:31:49.192Z,5.87
2017-08-19T20:34:16.673Z,5.90
2017-08-19T20:36:44.281Z,5.77
2017-08-19T20:39:11.761Z,6.60
2017-08-19T20:41:39.292Z,6.57
2017-08-19T20:44:06.813Z,8.67
2017-08-19T20:46:34.358Z,7.90
2017-08-19T20:49:01.841Z,6.80
2017-08-19T20:51:29.384Z,9.17
2017-08-19T20:53:56.868Z,6.90
2017-08-19T20:56:25.139Z,11.07
2017-08-19T20:58:52.713Z,8.57
2017-08-19T21:01:20.223Z,7.03
2017-08-19T21:03:47.802Z,6.20
2017-08-19T21:06:15.336Z,6.70
2017-08-19T21:08:42.825Z,6.40
2017-08-19T21:11:10.309Z,6.63
2017-08-19T21:13:37.854Z,5.83
2017-08-19T21:16:05.332Z,5.80
2017-08-19T21:18:32.823Z,5.43
2017-08-19T21:21:00.313Z,5.90
2017-08-19T21:23:27.817Z,5.50
2017-08-19T21:25:55.365Z,6.17
2017-08-19T21:28:22.869Z,5.53
2017-08-19T21:30:50.452Z,5.00
2017-08-19T21:33:17.953Z,5.37
2017-08-19T21:35:45.445Z,4.90
2017-08-19T21:38:13.111Z,4.90
2017-08-19T21:40:40.637Z,5.10
2017-08-19T21:43:08.174Z,5.00
2017-08-19T21:45:35.721Z,4.83
2017-08-19T21:48:03.200Z,5.80
2017-08-19T21:50:30.699Z,6.20
2017-08-19T21:52:58.202Z,4.87
2017-08-19T21:55:25.783Z,5.40
2017-08-19T21:57:53.264Z,4.87
2017-08-19T22:00:20.769Z,5.00
2017-08-19T22:02:48.320Z,4.57
2017-08-19T22:05:15.820Z,5.07
2017-08-19T22:07:43.349Z,4.37
2017-08-19T22:10:10.853Z,4.40
2017-08-19T22:12:38.408Z,4.63
2017-08-19T22:15:05.979Z,4.50
2017-08-19T22:17:33.464Z,4.33
2017-08-19T22:20:01.771Z,4.37
2017-08-19T22:22:29.256Z,4.80
2017-08-19T22:24:57.536Z,4.50
2017-08-19T22:27:25.104Z,4.20
2017-08-19T22:29:52.636Z,4.50
2017-08-19T22:32:20.173Z,4.50
2017-08-19T22:34:48.586Z,4.10
2017-08-19T22:37:16.185Z,4.13
2017-08-19T22:39:43.672Z,3.67
2017-08-19T22:42:11.181Z,4.03
2017-08-19T22:44:38.664Z,3.10
2017-08-19T22:47:06.272Z,4.27
2017-08-19T22:49:33.809Z,3.83
2017-08-19T22:52:01.457Z,3.37
2017-08-19T22:54:29.102Z,3.80
2017-08-19T22:56:56.640Z,3.73
2017-08-19T22:59:24.122Z,4.20
2017-08-19T23:01:51.642Z,3.60
2017-08-19T23:04:19.168Z,3.50
2017-08-19T23:06:46.656Z,4.43
2017-08-19T23:09:14.155Z,3.83
2017-08-19T23:11:41.664Z,3.10
2017-08-19T23:14:09.184Z,4.00
2017-08-19T23:16:36.688Z,3.37
2017-08-19T23:19:04.260Z,3.00
2017-08-19T23:21:31.780Z,3.87
2017-08-19T23:23:59.281Z,3.20
2017-08-19T23:26:26.889Z,3.03
2017-08-19T23:28:54.404Z,3.60
2017-08-19T23:31:21.884Z,3.50
2017-08-19T23:33:49.400Z,3.23
2017-08-19T23:36:16.932Z,3.30
2017-08-19T23:38:44.417Z,3.47
2017-08-19T23:41:11.961Z,3.40
2017-08-19T23:43:39.464Z,3.10
2017-08-19T23:46:06.970Z,3.30
2017-08-19T23:48:34.467Z,3.47
2017-08-19T23:51:01.985Z,3.13
2017-08-19T23:53:29.479Z,2.90
2017-08-19T23:55:57.076Z,3.23
2017-08-19T23:58:24.561Z,2.90
